Time;durP1;ratioP1;P1;durP2;ratioP2;P2;SDS_P1;SDS_P2;PMS_P1;PMS_P2;Temp;Humidity;BMP_temperature;BMP_pressure;BME280_temperature;BME280_humidity;BME280_pressure;Samples;Min_cycle;Max_cycle;Signal;HPM_P1;HPM_P2
2022/02/21 00:01:42;;;;;;;38.87;35.50;;;;;;;6.31;100.00;100343.41;2010748;71;33336;-72
2022/02/21 00:07:25;;;;;;;42.40;39.33;;;;;;;6.32;100.00;100342.87;2009064;71;32828;-73
2022/02/21 00:13:11;;;;;;;44.43;41.40;;;;;;;6.25;100.00;100361.02;2018139;70;33313;-73
2022/02/21 00:18:57;;;;;;;45.00;41.97;;;;;;;6.27;100.00;100372.63;1994930;71;32775;-73
2022/02/21 00:24:42;;;;;;;39.97;37.30;;;;;;;6.35;100.00;100392.80;2004202;71;33388;-73
2022/02/21 00:30:28;;;;;;;37.17;35.20;;;;;;;6.32;100.00;100414.03;2009311;71;32928;-72
2022/02/21 00:36:12;;;;;;;27.67;25.90;;;;;;;6.46;100.00;100406.08;1999634;71;32805;-73
2022/02/21 00:41:56;;;;;;;31.63;29.53;;;;;;;6.48;100.00;100396.16;1991119;71;32818;-74
2022/02/21 00:47:41;;;;;;;32.37;30.27;;;;;;;6.35;100.00;100396.94;1991248;71;32825;-72
2022/02/21 00:53:25;;;;;;;30.57;28.70;;;;;;;6.34;100.00;100415.95;2009510;71;32931;-74
2022/02/21 00:59:11;;;;;;;32.87;30.90;;;;;;;6.34;100.00;100422.02;1994366;71;33330;-73
2022/02/21 01:04:55;;;;;;;32.27;30.37;;;;;;;6.35;100.00;100433.34;1963820;72;33333;-73
2022/02/21 01:10:40;;;;;;;34.27;32.37;;;;;;;6.38;100.00;100430.04;2011115;71;33262;-72
2022/02/21 01:16:24;;;;;;;32.83;30.83;;;;;;;6.43;100.00;100441.65;2002179;71;33248;-74
2022/02/21 01:22:09;;;;;;;39.43;37.00;;;;;;;6.41;100.00;100419.87;2018073;71;33514;-74
2022/02/21 01:27:53;;;;;;;40.07;37.67;;;;;;;6.37;100.00;100432.55;1998534;70;32783;-73
2022/02/21 01:33:37;;;;;;;39.50;37.40;;;;;;;6.42;100.00;100427.02;2016431;71;32903;-72
2022/02/21 01:39:22;;;;;;;44.13;41.67;;;;;;;6.46;100.00;100432.28;2007749;71;32881;-72
2022/02/21 01:45:09;;;;;;;42.70;40.40;;;;;;;6.53;100.00;100474.28;2005101;71;32936;-73
2022/02/21 01:50:54;;;;;;;46.23;43.77;;;;;;;6.50;100.00;100433.98;2016375;71;32977;-75
2022/02/21 01:56:40;;;;;;;40.47;38.37;;;;;;;6.40;100.00;100449.38;1996722;71;33460;-73
2022/02/21 02:02:24;;;;;;;42.40;40.00;;;;;;;6.26;100.00;100448.73;2012787;71;33291;-74
2022/02/21 02:08:08;;;;;;;41.17;38.80;;;;;;;6.25;100.00;100447.90;1999673;71;32821;-73
2022/02/21 02:13:54;;;;;;;42.00;39.80;;;;;;;6.10;100.00;100467.66;2011248;71;32885;-73
2022/02/21 02:19:40;;;;;;;41.00;38.80;;;;;;;6.08;100.00;100455.51;2011283;71;32770;-73
2022/02/21 02:25:26;;;;;;;41.60;39.43;;;;;;;6.02;100.00;100442.80;1999754;71;33374;-74
2022/02/21 02:31:10;;;;;;;38.77;36.57;;;;;;;6.03;100.00;100439.50;1999717;71;32962;-73
2022/02/21 02:36:55;;;;;;;38.27;36.17;;;;;;;5.92;100.00;100450.44;2004042;71;32871;-73
2022/02/21 02:42:40;;;;;;;36.60;34.37;;;;;;;5.91;100.00;100460.34;2005813;70;32901;-73
2022/02/21 02:48:24;;;;;;;37.47;35.67;;;;;;;5.94;100.00;100444.67;2014300;71;32940;-74
2022/02/21 02:54:10;;;;;;;37.03;34.90;;;;;;;5.97;100.00;100441.38;2005233;71;33341;-73
2022/02/21 02:59:58;;;;;;;38.73;36.73;;;;;;;5.92;100.00;100433.91;2002150;71;33268;-72
2022/02/21 03:05:42;;;;;;;37.97;36.07;;;;;;;5.94;100.00;100433.66;2005759;71;32946;-72
2022/02/21 03:11:26;;;;;;;37.73;35.77;;;;;;;5.84;100.00;100433.53;1996618;70;33265;-74
2022/02/21 03:17:10;;;;;;;37.37;35.47;;;;;;;5.86;100.00;100416.20;1991030;71;33199;-73
2022/02/21 03:22:54;;;;;;;35.97;33.97;;;;;;;5.87;100.00;100435.23;2003873;71;32782;-72
2022/02/21 03:28:39;;;;;;;39.33;36.83;;;;;;;5.86;100.00;100431.36;1996497;71;32889;-73
2022/02/21 03:34:23;;;;;;;34.27;32.47;;;;;;;5.84;100.00;100441.80;2012300;71;32985;-73
2022/02/21 03:40:10;;;;;;;38.43;36.33;;;;;;;5.78;100.00;100431.82;2000001;71;32814;-73
2022/02/21 03:45:54;;;;;;;39.17;36.93;;;;;;;5.86;100.00;100432.73;1937855;70;33104;-73
2022/02/21 03:51:38;;;;;;;40.97;38.20;;;;;;;5.79;100.00;100430.73;2009042;71;32877;-73
2022/02/21 03:57:24;;;;;;;42.97;40.30;;;;;;;5.84;100.00;100424.72;2009333;71;32870;-74
2022/02/21 04:03:09;;;;;;;47.53;44.37;;;;;;;5.75;100.00;100397.91;1990142;71;32795;-73
2022/02/21 04:08:53;;;;;;;43.40;40.50;;;;;;;5.77;100.00;100389.68;1996489;71;32784;-73
2022/02/21 04:14:37;;;;;;;46.87;43.90;;;;;;;5.91;100.00;100409.35;2011235;71;33308;-73
2022/02/21 04:20:23;;;;;;;44.87;42.27;;;;;;;5.98;100.00;100425.67;2010913;71;32912;-73
2022/02/21 04:26:07;;;;;;;50.40;47.20;;;;;;;5.90;100.00;100415.98;2010723;71;32842;-74
2022/02/21 04:31:51;;;;;;;50.30;47.00;;;;;;;5.95;100.00;100404.42;2012883;71;33403;-73
2022/02/21 04:37:35;;;;;;;47.33;44.33;;;;;;;6.02;100.00;100376.64;2010913;71;33056;-74
2022/02/21 04:43:22;;;;;;;47.40;44.40;;;;;;;6.04;100.00;100366.16;2009015;71;32828;-72
2022/02/21 04:49:06;;;;;;;46.43;43.43;;;;;;;6.03;100.00;100346.60;2010547;71;32829;-73
2022/02/21 04:54:52;;;;;;;47.40;44.40;;;;;;;6.05;100.00;100360.94;2014427;71;32843;-73
2022/02/21 05:00:37;;;;;;;46.20;43.20;;;;;;;6.15;100.00;100368.44;1992482;70;39682;-73
2022/02/21 05:06:20;;;;;;;45.17;41.97;;;;;;;6.19;100.00;100354.39;1996872;71;33239;-74
2022/02/21 05:12:06;;;;;;;43.97;40.97;;;;;;;6.30;100.00;100350.02;2003937;71;32816;-73
2022/02/21 05:17:50;;;;;;;42.07;39.13;;;;;;;6.25;100.00;100322.96;2011224;71;33258;-72
2022/02/21 05:23:34;;;;;;;40.23;37.47;;;;;;;6.33;100.00;100310.86;2018045;71;32844;-74
2022/02/21 05:29:18;;;;;;;41.77;39.10;;;;;;;6.37;100.00;100342.31;2014519;71;32869;-72
2022/02/21 05:35:03;;;;;;;41.70;38.70;;;;;;;6.42;100.00;100319.44;2008855;71;32830;-73
2022/02/21 05:40:47;;;;;;;38.73;36.20;;;;;;;6.38;100.00;100324.67;2007598;71;33232;-72
2022/02/21 05:46:31;;;;;;;38.73;36.43;;;;;;;6.51;100.00;100304.57;1994585;71;32838;-72
2022/02/21 05:52:15;;;;;;;40.53;37.83;;;;;;;6.45;100.00;100313.95;2010559;71;32842;-74
2022/02/21 05:58:00;;;;;;;39.93;36.63;;;;;;;6.57;100.00;100300.19;1994457;71;33312;-73
2022/02/21 06:03:45;;;;;;;41.50;38.60;;;;;;;6.61;100.00;100301.84;2008939;71;33418;-73
2022/02/21 06:09:30;;;;;;;40.67;37.63;;;;;;;6.61;100.00;100303.23;1994715;71;32900;-72
2022/02/21 06:15:14;;;;;;;40.90;38.10;;;;;;;6.71;100.00;100296.36;1994475;71;32828;-74
2022/02/21 06:20:58;;;;;;;41.77;38.70;;;;;;;6.78;100.00;100261.03;2005761;70;32829;-74
2022/02/21 06:26:42;;;;;;;40.40;37.30;;;;;;;6.80;100.00;100285.86;1998578;71;33393;-74
2022/02/21 06:32:26;;;;;;;43.63;40.07;;;;;;;6.89;100.00;100283.97;2009368;71;32941;-72
2022/02/21 06:38:11;;;;;;;43.57;39.87;;;;;;;6.97;100.00;100235.94;2010580;71;32910;-72
2022/02/21 06:43:55;;;;;;;43.10;39.17;;;;;;;7.10;100.00;100251.91;2012755;71;33019;-73
2022/02/21 06:49:39;;;;;;;40.60;37.23;;;;;;;7.24;100.00;100261.86;2005808;71;32850;-73
2022/02/21 06:55:24;;;;;;;43.80;40.37;;;;;;;7.52;100.00;100259.91;2014441;71;32951;-73
2022/02/21 07:01:08;;;;;;;45.93;42.57;;;;;;;7.44;100.00;100234.22;2010850;71;33382;-73
2022/02/21 07:06:54;;;;;;;50.07;46.17;;;;;;;7.51;100.00;100257.41;1991113;71;32780;-72
2022/02/21 07:12:38;;;;;;;50.77;46.53;;;;;;;7.88;100.00;100263.38;2011217;71;32875;-72
2022/02/21 07:18:23;;;;;;;50.90;47.30;;;;;;;7.65;100.00;100288.89;2016271;71;32945;-71
2022/02/21 07:24:08;;;;;;;48.63;44.53;;;;;;;8.06;100.00;100286.82;2012518;71;32903;-73
2022/02/21 07:29:53;;;;;;;45.93;42.27;;;;;;;7.84;100.00;100307.91;2018051;71;33353;-72
2022/02/21 07:35:37;;;;;;;46.50;42.90;;;;;;;7.92;100.00;100289.91;2009726;71;33275;-73
2022/02/21 07:41:22;;;;;;;50.90;47.00;;;;;;;7.93;100.00;100290.18;1991166;71;33290;-73
2022/02/21 07:47:09;;;;;;;45.63;42.20;;;;;;;8.04;100.00;100276.06;2009473;71;32754;-71
2022/02/21 07:52:55;;;;;;;43.23;40.13;;;;;;;8.05;100.00;100290.14;2017754;71;32960;-72
2022/02/21 07:58:39;;;;;;;43.00;39.27;;;;;;;8.12;100.00;100298.98;2009386;71;32773;-71
2022/02/21 08:04:24;;;;;;;43.67;40.13;;;;;;;8.21;100.00;100297.84;2007667;70;33342;-71
2022/02/21 08:10:10;;;;;;;41.27;37.57;;;;;;;8.23;100.00;100308.88;2012399;71;32827;-73
2022/02/21 08:15:54;;;;;;;41.60;37.93;;;;;;;8.29;100.00;100334.63;1994880;71;33263;-73
2022/02/21 08:21:38;;;;;;;40.57;37.17;;;;;;;8.42;100.00;100317.97;2013027;71;32869;-74
2022/02/21 08:27:23;;;;;;;38.20;34.87;;;;;;;8.54;100.00;100351.67;1996684;71;33220;-74
2022/02/21 08:33:08;;;;;;;36.97;33.27;;;;;;;8.67;100.00;100349.67;2001729;71;33475;-74
2022/02/21 08:38:52;;;;;;;37.57;33.93;;;;;;;8.89;100.00;100378.36;2012609;71;32970;-73
2022/02/21 08:44:36;;;;;;;34.53;31.73;;;;;;;8.84;100.00;100399.98;2010704;71;33250;-72
2022/02/21 08:50:21;;;;;;;34.20;31.27;;;;;;;8.91;100.00;100384.42;2014482;71;32916;-72
2022/02/21 08:56:07;;;;;;;32.63;29.97;;;;;;;9.09;100.00;100403.16;2016039;71;32874;-72
2022/02/21 09:01:51;;;;;;;29.30;26.63;;;;;;;9.31;100.00;100411.06;2007346;70;32868;-73
2022/02/21 09:07:35;;;;;;;32.23;29.50;;;;;;;9.28;100.00;100404.16;1996863;71;32755;-72
2022/02/21 09:13:21;;;;;;;31.37;28.80;;;;;;;9.54;100.00;100395.09;1998072;71;32888;-72
2022/02/21 09:19:05;;;;;;;29.77;27.43;;;;;;;9.58;100.00;100432.22;2003420;71;32863;-72
2022/02/21 09:24:41;;;;;;;30.43;28.00;;;;;;;9.62;100.00;100446.33;1918638;71;33578;-71
2022/02/21 09:27:11;;;;;;;30.20;27.67;;;;;;;9.62;100.00;100445.77;1884698;76;26272;-72
2022/02/21 09:29:41;;;;;;;29.20;26.70;;;;;;;9.66;100.00;100462.66;1887166;76;26241;-72
2022/02/21 09:32:12;;;;;;;29.40;26.93;;;;;;;9.66;100.00;100459.33;1880106;76;26739;-72
2022/02/21 09:34:42;;;;;;;29.93;27.00;;;;;;;9.74;100.00;100463.42;1887175;76;26205;-72
2022/02/21 09:37:13;;;;;;;30.83;28.43;;;;;;;9.82;100.00;100484.44;1880158;76;26691;-72
2022/02/21 09:39:43;;;;;;;30.13;27.30;;;;;;;9.94;100.00;100486.84;1887032;76;26206;-72
2022/02/21 09:42:13;;;;;;;29.67;27.07;;;;;;;10.06;100.00;100495.61;1880024;76;26283;-72
2022/02/21 09:44:46;;;;;;;29.57;27.07;;;;;;;9.97;100.00;100513.44;1886996;76;26201;-72
2022/02/21 09:47:18;;;;;;;27.43;25.03;;;;;;;9.91;100.00;100532.64;1880077;76;26283;-71
2022/02/21 09:49:48;;;;;;;28.13;26.00;;;;;;;9.91;100.00;100540.97;1887150;76;26211;-72
2022/02/21 09:52:18;;;;;;;28.97;26.23;;;;;;;9.90;100.00;100557.89;1880129;76;26254;-72
2022/02/21 09:54:49;;;;;;;28.10;25.83;;;;;;;9.88;100.00;100552.62;1887108;76;26246;-71
2022/02/21 09:57:19;;;;;;;30.03;27.57;;;;;;;9.89;100.00;100562.61;1880125;76;26308;-71
2022/02/21 09:59:49;;;;;;;28.90;26.53;;;;;;;9.92;100.00;100563.44;1887209;76;26330;-71
2022/02/21 10:02:23;;;;;;;29.50;26.63;;;;;;;9.90;100.00;100562.05;1919929;74;26233;-70
2022/02/21 10:05:12;;;;;;;28.20;25.70;;;;;;;9.90;100.00;100573.98;1919856;75;26642;-72
2022/02/21 10:07:43;;;;;;;28.00;25.53;;;;;;;9.96;100.00;100572.01;1919921;75;26272;-72
2022/02/21 10:10:17;;;;;;;27.77;25.33;;;;;;;10.10;100.00;100572.20;1919956;74;26212;-72
2022/02/21 10:12:49;;;;;;;25.97;23.93;;;;;;;10.20;100.00;100587.39;1919983;75;26231;-71
2022/02/21 10:15:22;;;;;;;26.77;24.40;;;;;;;10.15;100.00;100599.88;1919939;75;26746;-71
2022/02/21 10:17:54;;;;;;;26.27;24.37;;;;;;;10.15;100.00;100570.22;1919943;75;26683;-70
2022/02/21 10:20:24;;;;;;;26.80;24.73;;;;;;;10.28;100.00;100584.00;1917595;74;26191;-70
2022/02/21 10:26:20;;;;;;;26.67;24.33;;;;;;;10.40;100.00;100595.55;2016101;71;33326;-72
2022/02/21 10:32:10;;;;;;;26.87;24.57;;;;;;;10.44;100.00;100598.02;1994693;71;33338;-71
2022/02/21 10:37:58;;;;;;;26.23;24.23;;;;;;;10.76;100.00;100634.41;2003717;71;32966;-74
2022/02/21 10:43:43;;;;;;;26.17;24.10;;;;;;;10.62;100.00;100664.52;2005878;71;33358;-72
2022/02/21 10:49:29;;;;;;;26.90;24.33;;;;;;;10.54;100.00;100672.09;2016355;71;32936;-75
2022/02/21 10:55:14;;;;;;;26.63;24.60;;;;;;;10.63;100.00;100691.19;2010953;71;32835;-73
2022/02/21 11:01:01;;;;;;;26.73;24.63;;;;;;;10.61;100.00;100701.19;2016038;71;32916;-74
2022/02/21 11:06:47;;;;;;;27.17;25.27;;;;;;;10.61;100.00;100711.50;1999806;71;33441;-72
2022/02/21 11:12:37;;;;;;;25.87;24.03;;;;;;;10.73;100.00;100718.34;2000357;71;33261;-73
2022/02/21 11:18:25;;;;;;;27.40;25.07;;;;;;;10.78;100.00;100725.23;2009021;71;32811;-75
2022/02/21 11:21:01;;;;;;;28.87;26.53;;;;;;;10.84;100.00;100752.42;1965819;72;26274;-75
2022/02/21 11:26:52;;;;;;;28.43;26.23;;;;;;;10.95;100.00;100743.70;2014876;71;32834;-78
2022/02/21 11:29:27;;;;;;;28.73;26.60;;;;;;;10.99;100.00;100751.48;1986993;72;24166;-77
2022/02/21 11:35:16;;;;;;;27.27;25.17;;;;;;;12.25;100.00;100757.94;1997943;71;32796;-77
2022/02/21 11:41:03;;;;;;;26.13;23.70;;;;;;;11.25;100.00;100767.63;2008805;71;32898;-72
2022/02/21 11:46:50;;;;;;;26.03;24.27;;;;;;;11.29;100.00;100772.08;2003980;71;32769;-73
2022/02/21 11:52:48;;;;;;;27.80;25.70;;;;;;;11.50;100.00;100787.45;2005206;71;33307;-78
2022/02/21 11:55:50;;;;;;;26.50;24.60;;;;;;;11.33;100.00;100782.88;1979111;72;26758;-72
2022/02/21 12:01:53;;;;;;;28.00;26.00;;;;;;;11.34;100.00;100802.59;2007249;71;32876;-73
2022/02/21 12:07:38;;;;;;;27.93;26.03;;;;;;;11.39;100.00;100837.32;2005197;71;32930;-76
2022/02/21 12:13:32;;;;;;;27.33;25.33;;;;;;;11.31;100.00;100838.78;2001670;71;32862;-76
2022/02/21 12:19:28;;;;;;;28.53;26.33;;;;;;;11.31;100.00;100872.14;2014949;71;32816;-71
2022/02/21 12:25:24;;;;;;;29.97;27.80;;;;;;;11.31;100.00;100882.44;2016316;71;33347;-75
2022/02/21 12:31:32;;;;;;;29.93;27.63;;;;;;;11.36;100.00;100893.53;2002103;71;32838;-77
2022/02/21 12:37:17;;;;;;;34.70;31.90;;;;;;;11.29;100.00;100931.41;1994901;71;32790;-74
2022/02/21 12:43:02;;;;;;;43.80;41.10;;;;;;;11.13;100.00;100960.95;2000150;71;33295;-76
2022/02/21 12:48:58;;;;;;;37.43;34.77;;;;;;;11.09;100.00;100963.48;2007530;71;32760;-75
2022/02/21 12:54:53;;;;;;;40.83;37.87;;;;;;;11.13;100.00;100979.86;2008970;71;32792;-71
2022/02/21 13:00:38;;;;;;;48.23;44.90;;;;;;;11.11;100.00;101014.63;2016323;71;32908;-71
2022/02/21 13:06:22;;;;;;;50.40;47.50;;;;;;;10.93;100.00;101059.17;2004167;70;32858;-70
2022/02/21 13:12:08;;;;;;;54.70;50.87;;;;;;;10.75;100.00;101094.50;1994634;71;32759;-75
2022/02/21 13:17:57;;;;;;;60.60;56.33;;;;;;;10.47;100.00;101063.99;2004133;71;33264;-72
2022/02/21 13:23:41;;;;;;;55.90;52.50;;;;;;;10.56;100.00;101083.70;2000350;71;32862;-76
2022/02/21 13:29:37;;;;;;;57.03;53.63;;;;;;;10.72;100.00;101091.73;2014505;71;32882;-71
2022/02/21 13:35:23;;;;;;;54.30;51.00;;;;;;;10.71;100.00;101127.57;1991529;71;32818;-70
2022/02/21 13:41:07;;;;;;;48.90;45.90;;;;;;;10.84;100.00;101121.44;2011528;70;32924;-71
2022/02/21 13:46:51;;;;;;;48.90;45.80;;;;;;;11.07;100.00;101149.20;1996616;71;32834;-75
2022/02/21 13:52:53;;;;;;;39.97;37.23;;;;;;;11.29;100.00;101165.00;2009044;71;30947;-70
2022/02/21 13:58:40;;;;;;;40.63;37.63;;;;;;;11.41;100.00;101166.07;1991070;71;32775;-76
2022/02/21 14:04:27;;;;;;;35.60;32.70;;;;;;;11.43;100.00;101166.60;1999692;71;32998;-72
2022/02/21 14:10:14;;;;;;;27.10;25.07;;;;;;;11.50;100.00;101169.94;2009310;71;32795;-77
2022/02/21 14:16:12;;;;;;;24.57;22.77;;;;;;;11.83;100.00;101176.78;2014429;71;32825;-76
2022/02/21 14:21:59;;;;;;;19.97;18.57;;;;;;;11.99;100.00;101184.48;2001638;71;32961;-76
2022/02/21 14:27:43;;;;;;;19.03;17.37;;;;;;;11.91;100.00;101190.66;2014327;71;32878;-76
2022/02/21 14:33:29;;;;;;;19.10;17.17;;;;;;;11.98;100.00;101210.68;2010915;71;32845;-72
2022/02/21 14:39:13;;;;;;;17.27;15.47;;;;;;;11.99;100.00;101238.22;2012594;71;33356;-72
2022/02/21 14:44:57;;;;;;;16.13;14.57;;;;;;;11.99;100.00;101255.48;2012526;71;32900;-77
2022/02/21 14:50:43;;;;;;;16.50;14.33;;;;;;;11.94;100.00;101279.99;2012838;71;32996;-76
2022/02/21 14:56:29;;;;;;;15.43;13.83;;;;;;;11.97;100.00;101296.70;2005284;71;33466;-72
2022/02/21 15:02:14;;;;;;;16.63;12.90;;;;;;;12.04;100.00;101311.15;2007232;71;32929;-75
2022/02/21 15:08:01;;;;;;;17.07;12.57;;;;;;;12.29;100.00;101316.06;2002037;71;32845;-73
2022/02/21 15:13:46;;;;;;;13.47;11.63;;;;;;;12.14;100.00;101328.67;2016180;71;32833;-77
2022/02/21 15:19:30;;;;;;;15.67;12.40;;;;;;;12.15;100.00;101351.20;2010671;71;32932;-73
2022/02/21 15:25:15;;;;;;;13.73;11.50;;;;;;;12.14;100.00;101369.61;1999812;71;32925;-73
2022/02/21 15:31:00;;;;;;;14.10;12.37;;;;;;;12.11;100.00;101393.82;2001850;71;32934;-72
2022/02/21 15:36:44;;;;;;;13.43;12.07;;;;;;;12.01;100.00;101395.25;2018054;71;33007;-71
2022/02/21 15:42:28;;;;;;;15.50;12.93;;;;;;;12.06;100.00;101396.64;2016214;70;32839;-72
2022/02/21 15:48:12;;;;;;;14.23;12.93;;;;;;;12.09;100.00;101412.22;2005428;71;32978;-77
2022/02/21 15:53:57;;;;;;;18.23;13.10;;;;;;;12.20;100.00;101423.60;2005724;71;32786;-74
2022/02/21 15:59:41;;;;;;;14.77;12.33;;;;;;;12.06;100.00;101435.62;2014624;71;32896;-71
2022/02/21 16:05:25;;;;;;;13.23;11.90;;;;;;;12.07;100.00;101450.64;1994909;71;30826;-80
2022/02/21 16:11:09;;;;;;;14.77;12.37;;;;;;;12.07;100.00;101470.69;2005753;71;32972;-76
2022/02/21 16:16:55;;;;;;;14.17;12.93;;;;;;;12.10;100.00;101490.48;2007559;71;32837;-71
2022/02/21 16:22:40;;;;;;;14.97;12.53;;;;;;;12.22;100.00;101483.22;2016931;71;32943;-76
2022/02/21 16:28:26;;;;;;;14.37;11.67;;;;;;;12.41;100.00;101491.83;2010677;71;32838;-71
2022/02/21 16:34:10;;;;;;;13.37;12.07;;;;;;;12.22;100.00;101516.64;1991166;71;32897;-75
2022/02/21 16:39:54;;;;;;;13.77;12.37;;;;;;;11.99;100.00;101534.73;2016399;71;32832;-74
2022/02/21 16:45:40;;;;;;;13.70;12.30;;;;;;;11.91;100.00;101540.86;2009026;71;33294;-74
2022/02/21 16:51:25;;;;;;;14.50;12.37;;;;;;;11.73;100.00;101551.97;2014274;71;32827;-74
2022/02/21 16:57:09;;;;;;;15.00;12.20;;;;;;;11.71;100.00;101588.12;1994228;71;32827;-74
2022/02/21 17:02:56;;;;;;;13.43;12.03;;;;;;;11.67;100.00;101592.02;2011144;71;32938;-72
2022/02/21 17:08:42;;;;;;;12.20;11.10;;;;;;;11.58;100.00;101615.09;2012632;71;32908;-78
2022/02/21 17:14:26;;;;;;;15.53;11.73;;;;;;;11.57;100.00;101620.36;2008843;71;32935;-77
2022/02/21 17:20:13;;;;;;;14.60;12.27;;;;;;;11.51;100.00;101645.12;2013393;71;32766;-77
2022/02/21 17:25:58;;;;;;;47.97;35.40;;;;;;;11.40;100.00;101647.84;2001014;71;32933;-76
2022/02/21 17:31:43;;;;;;;13.20;12.07;;;;;;;11.33;100.00;101668.68;2014695;71;32827;-77
2022/02/21 17:37:27;;;;;;;15.20;13.80;;;;;;;11.31;100.00;101685.63;2005316;71;32842;-74
2022/02/21 17:43:11;;;;;;;13.97;11.90;;;;;;;11.25;100.00;101699.20;2005563;71;32948;-71
2022/02/21 17:48:56;;;;;;;13.63;12.13;;;;;;;11.15;100.00;101724.19;2003773;71;32896;-74
2022/02/21 17:54:47;;;;;;;14.00;12.43;;;;;;;11.05;100.00;101736.62;1904502;75;33134;-77
2022/02/21 18:00:32;;;;;;;14.23;12.33;;;;;;;11.00;100.00;101749.09;2012926;71;33508;-71
2022/02/21 18:06:17;;;;;;;17.33;12.40;;;;;;;10.93;100.00;101754.89;2004591;71;32846;-77
2022/02/21 18:12:01;;;;;;;15.50;11.67;;;;;;;10.90;100.00;101769.33;1991617;71;32796;-75
2022/02/21 18:17:46;;;;;;;16.23;12.50;;;;;;;10.78;100.00;101767.25;1991017;71;33321;-77
2022/02/21 18:23:31;;;;;;;18.03;13.23;;;;;;;10.72;100.00;101770.27;2016240;71;33282;-75
2022/02/21 18:29:16;;;;;;;15.87;14.17;;;;;;;10.53;100.00;101795.34;2003609;71;32907;-79
2022/02/21 18:35:00;;;;;;;14.83;13.27;;;;;;;10.38;100.00;101816.31;2001846;71;32907;-73
2022/02/21 18:40:44;;;;;;;16.27;13.90;;;;;;;10.33;100.00;101819.58;1994770;71;32784;-71
2022/02/21 18:46:28;;;;;;;15.70;13.33;;;;;;;10.32;100.00;101835.39;2014527;71;32889;-73
2022/02/21 18:52:13;;;;;;;23.80;21.30;;;;;;;10.40;100.00;101869.66;2012545;71;32920;-73
2022/02/21 18:57:58;;;;;;;15.77;12.07;;;;;;;10.39;100.00;101874.94;2003646;71;33013;-80
2022/02/21 19:03:45;;;;;;;15.37;13.70;;;;;;;10.39;100.00;101879.11;2000155;71;32779;-75
2022/02/21 19:09:31;;;;;;;17.87;12.80;;;;;;;10.35;100.00;101886.28;1996715;71;32925;-74
2022/02/21 19:15:17;;;;;;;33.50;28.67;;;;;;;10.27;100.00;101914.47;2011303;71;32941;-78
2022/02/21 19:21:01;;;;;;;16.67;13.17;;;;;;;10.18;100.00;101929.92;2011043;71;33320;-74
2022/02/21 19:26:46;;;;;;;15.63;13.97;;;;;;;9.87;100.00;101947.19;1994861;71;32901;-77
2022/02/21 19:32:30;;;;;;;14.87;13.23;;;;;;;9.80;100.00;101956.20;2009095;71;32978;-74
2022/02/21 19:38:15;;;;;;;19.53;13.17;;;;;;;9.73;100.00;101964.72;2016309;71;33433;-78
2022/02/21 19:43:59;;;;;;;14.73;12.63;;;;;;;9.69;100.00;101976.02;2017854;71;32918;-73
2022/02/21 19:49:44;;;;;;;18.30;13.90;;;;;;;9.62;100.00;101985.07;2003862;71;32956;-73
2022/02/21 19:55:31;;;;;;;15.37;13.87;;;;;;;9.27;100.00;101995.52;2005454;71;32830;-78
2022/02/21 20:01:15;;;;;;;20.40;16.63;;;;;;;9.36;100.00;101993.48;2012513;71;32948;-77
2022/02/21 20:07:01;;;;;;;16.57;15.03;;;;;;;9.33;100.00;102002.82;2005190;71;32912;-73
2022/02/21 20:12:46;;;;;;;18.30;16.20;;;;;;;8.81;100.00;102025.64;2014474;71;32841;-78
2022/02/21 20:18:33;;;;;;;20.13;18.00;;;;;;;8.69;100.00;102028.42;1996730;71;32846;-76
2022/02/21 20:24:19;;;;;;;23.90;21.83;;;;;;;8.20;100.00;102054.16;2004054;71;33309;-75
2022/02/21 20:30:04;;;;;;;24.40;22.47;;;;;;;8.19;100.00;102063.53;2009397;71;32918;-72
2022/02/21 20:35:49;;;;;;;28.60;26.20;;;;;;;8.51;100.00;102071.52;2017913;71;32803;-75
2022/02/21 20:41:33;;;;;;;32.00;29.10;;;;;;;8.15;100.00;102082.23;2009538;71;33424;-74
2022/02/21 20:47:17;;;;;;;36.33;33.47;;;;;;;8.54;100.00;102079.33;2016467;71;32840;-75
2022/02/21 20:53:01;;;;;;;40.50;36.90;;;;;;;8.46;100.00;102086.63;2016494;71;33025;-77
2022/02/21 20:58:46;;;;;;;59.07;53.37;;;;;;;8.57;100.00;102087.99;1991153;71;33345;-71
2022/02/21 21:04:32;;;;;;;53.90;49.27;;;;;;;8.32;100.00;102090.70;1991118;71;32860;-76
2022/02/21 21:10:23;;;;;;;57.97;53.83;;;;;;;8.41;100.00;102102.58;2010731;71;32847;-70
2022/02/21 21:16:05;;;;;;;59.53;55.30;;;;;;;8.45;100.00;102101.00;2010784;71;33380;-72
2022/02/21 21:21:51;;;;;;;60.10;55.57;;;;;;;8.47;100.00;102114.63;1994651;71;32955;-76
2022/02/21 21:27:36;;;;;;;62.20;57.37;;;;;;;8.53;100.00;102114.48;2009780;71;32867;-72
2022/02/21 21:33:25;;;;;;;61.00;56.23;;;;;;;8.48;100.00;102124.59;2004104;71;33282;-77
2022/02/21 21:39:09;;;;;;;61.97;57.03;;;;;;;8.42;100.00;102136.11;1991270;71;33235;-74
2022/02/21 21:44:56;;;;;;;64.23;59.13;;;;;;;8.36;100.00;102156.97;2011496;71;32939;-78
2022/02/21 21:50:40;;;;;;;68.37;62.67;;;;;;;8.34;100.00;102156.38;2012864;71;32868;-71
2022/02/21 21:56:24;;;;;;;71.37;65.53;;;;;;;8.42;100.00;102151.87;2016383;71;32889;-73
2022/02/21 22:02:10;;;;;;;63.50;58.37;;;;;;;8.42;100.00;102155.48;1996615;71;32815;-70
2022/02/21 22:07:54;;;;;;;61.07;56.77;;;;;;;8.32;100.00;102152.45;2014643;71;33474;-78
2022/02/21 22:13:39;;;;;;;60.77;56.30;;;;;;;8.26;100.00;102165.00;1994587;71;33349;-77
2022/02/21 22:19:24;;;;;;;65.57;60.87;;;;;;;8.19;100.00;102165.94;2005302;71;33283;-78
2022/02/21 22:25:11;;;;;;;62.00;57.77;;;;;;;8.20;100.00;102164.87;2002121;70;32851;-73
2022/02/21 22:30:55;;;;;;;65.30;59.97;;;;;;;8.07;100.00;102167.00;2004270;71;33213;-71
2022/02/21 22:36:41;;;;;;;64.33;59.40;;;;;;;7.89;100.00;102172.58;1994399;71;32868;-72
2022/02/21 22:42:26;;;;;;;63.37;58.40;;;;;;;8.03;100.00;102165.78;2017950;71;32854;-74
2022/02/21 22:48:11;;;;;;;63.63;59.23;;;;;;;8.04;100.00;102182.70;2000426;71;33357;-73
2022/02/21 22:53:55;;;;;;;62.23;58.00;;;;;;;7.91;100.00;102190.66;2016025;71;32946;-71
2022/02/21 22:59:39;;;;;;;63.93;59.03;;;;;;;8.01;100.00;102194.22;2007492;70;32744;-72
2022/02/21 23:05:23;;;;;;;59.83;55.77;;;;;;;8.15;100.00;102200.70;2009580;71;32798;-73
2022/02/21 23:11:07;;;;;;;61.70;57.10;;;;;;;8.19;100.00;102185.85;2002252;71;32740;-71
2022/02/21 23:16:52;;;;;;;59.63;55.40;;;;;;;8.28;100.00;102175.28;2016474;71;32796;-72
2022/02/21 23:22:37;;;;;;;62.80;58.27;;;;;;;8.10;100.00;102181.20;1994346;71;32898;-74
2022/02/21 23:28:23;;;;;;;60.87;56.67;;;;;;;8.07;100.00;102180.83;2005993;71;33302;-73
2022/02/21 23:34:07;;;;;;;63.87;59.37;;;;;;;7.98;100.00;102172.56;1999894;71;32860;-72
2022/02/21 23:39:51;;;;;;;62.93;58.57;;;;;;;7.91;100.00;102175.44;2010766;71;32872;-72
2022/02/21 23:45:36;;;;;;;62.53;58.37;;;;;;;7.94;100.00;102183.26;2002365;71;32786;-74
2022/02/21 23:51:22;;;;;;;62.10;57.80;;;;;;;7.96;100.00;102181.08;2011146;71;32746;-72
2022/02/21 23:57:07;;;;;;;64.80;60.57;;;;;;;8.06;100.00;102186.05;2000324;71;33269;-71
